Atascadero, CA

9:04 PM PST on February 13, 2016 (GMT -0800)
Just south of AS High School | | Change Station
CLOSE
Current Station
Personal Weather Station
Location: Atascadero, CA
Elevation: 922 ft
Nearby Weather Stations

Elev 922 ft 35.48 °N, 120.67 °W | Updated 12 minutes ago

Clear
Clear
53.1 °F
Feels Like 53.1 °F
N
0.0
Wind Variable Wind from West

Today
High -- | Low -- °F
--% Chance of Precip.
Yesterday
High -- | Low -- °F
Precip. -- in
Pressure 30.23 in
Visibility 10.0 miles
Clouds Clear
Dew Point 49 °F
Humidity 87%
Rainfall 0.00 in
Snow Depth Not available.
6:51 AM 5:42 PM
Waxing Crescent, 38% visible
METAR KPRB 140453Z AUTO 13004KT 10SM CLR 14/10 A3023 RMK AO2 SLP235 T01390100 TSNO
Pressure 30.23 in
Visibility 10.0 miles
Clouds Clear
Dew Point 49 °F
Humidity 87%
Rainfall 0.00 in
Snow Depth Not available.
6:51 AM 5:42 PM
Waxing Crescent, 38% visible
METAR KPRB 140453Z AUTO 13004KT 10SM CLR 14/10 A3023 RMK AO2 SLP235 T01390100 TSNO

10-Day Weather Forecast

Almanac

Astronomy

Feb. 13, 2016 Rise Set
Actual Time
Civil Twilight
Nautical Twilight
Astronomical Twilight
Moon
Length of Visible Light
Length of Day
Tomorrow will be .
, % of the Moon is Illuminated

Today's Extremes

State Highs State Lows

Community

WunderPhotos

Upload Photos

1,892,748 photos uploaded!

WunderBlog® & News

Nearby

Air Quality

  Air Quality AQ Index Pollutant
Not available.

Snow Depth

Station Depth Elevation

Earthquake Activity

City Distance Mag. Time & Date
Minimum magnitude displayed is 2.5.

Coastal Water Temperatures

Place Temperature

Stations

Nearby Weather Stations

Station Location Temp. Windchill Dew Point Humidity Wind Precip. Elev Updated Type
                   

Watches & Warnings

There are currently no watches in effect.